Salten — LMFM — position and weather

sailwx.info

Track history (hours):
 
Tides and Currents Weather Stations Pressure Air Temp Water Temp Dewpoint Dewpoint Depression Visibility Wind Speed Wind Dir Waves Ship Positions

Salten

Last reported at 2014-Oct-24 14:28 UTC. Time now 2014-Oct-25 05:34 UTC.
Position N 67°08' E 014°01'.

Length 41 m; draft 1.5 m.

Type: High speed craft. MMSI: 259387000.

Date/timePositionNaut miles runAvg speedWind from/ knotsBaromVisibWave heightAir tempDewpointWater temp
2014-Oct-24 14:28N 67°08' E 014°01'1313.7
2014-Oct-24 13:33N 67°17' E 014°22'0 0.0
2014-Oct-24 12:33N 67°17' E 014°22'0 0.0
2014-Oct-24 11:33N 67°17' E 014°22'0 0.0
2014-Oct-24 10:33N 67°17' E 014°22'12 0.6
2014-Oct-23 14:32N 67°07' E 014°03'1313.1
2014-Oct-23 13:33N 67°17' E 014°24'1 0.6
2014-Oct-23 12:33N 67°17' E 014°22'0 0.0
2014-Oct-23 11:33N 67°17' E 014°22'0 0.0
2014-Oct-23 10:33N 67°17' E 014°22'6 6.4
2014-Oct-23 09:33N 67°13' E 014°10'8 0.4
2014-Oct-22 14:30N 67°06' E 013°58'1415.1
2014-Oct-22 13:33N 67°17' E 014°22'0 0.0
2014-Oct-22 12:33N 67°17' E 014°22'0 0.0
2014-Oct-22 11:33N 67°17' E 014°22'0 0.0
2014-Oct-22 10:33N 67°17' E 014°22'9 8.6
2014-Oct-22 09:32N 67°11' E 014°06'15 0.8
2014-Oct-21 15:06N 67°00' E 013°39'1220.1
2014-Oct-21 14:31N 67°07' E 014°03'1212.7
2014-Oct-21 13:33N 67°17' E 014°22'0 0.0
2014-Oct-21 12:33N 67°17' E 014°22'0 0.0
2014-Oct-21 11:33N 67°17' E 014°22'0 0.0
2014-Oct-21 10:33N 67°17' E 014°22'0 0.0
2014-Oct-21 09:33N 67°17' E 014°22'0 0.0
2014-Oct-21 08:33N 67°17' E 014°22'1211.9
2014-Oct-21 07:32N 67°28' E 014°37'5 0.3
2014-Oct-20 15:33N 67°23' E 014°31'7 7.0
2014-Oct-20 14:33N 67°17' E 014°22'0 0.0
2014-Oct-20 13:33N 67°17' E 014°22'0 0.0
2014-Oct-20 12:33N 67°17' E 014°22'0 0.0
2014-Oct-20 11:33N 67°17' E 014°22'0 0.0
2014-Oct-20 10:33N 67°17' E 014°22'5 5.4
2014-Oct-20 09:33N 67°14' E 014°12'50 2.6
2014-Oct-19 14:28N 66°33' E 012°58'2811.7
2014-Oct-19 12:05N 66°58' E 013°31'1527.2
2014-Oct-19 11:32N 67°08' E 013°58'1313.2
2014-Oct-19 10:33N 67°17' E 014°22'0 0.0
2014-Oct-19 09:33N 67°17' E 014°22'0 0.0
2014-Oct-19 08:33N 67°17' E 014°22'0 0.0
2014-Oct-19 07:33N 67°17' E 014°22'0 0.0
2014-Oct-19 06:33N 67°17' E 014°22'0 0.0
2014-Oct-19 05:33N 67°17' E 014°22'0 0.0
2014-Oct-19 04:33N 67°17' E 014°22'0 0.0
2014-Oct-19 03:33N 67°17' E 014°22'0 0.0
2014-Oct-19 02:33N 67°17' E 014°22'0 0.0
2014-Oct-19 01:33N 67°17' E 014°22'0 0.0
2014-Oct-19 00:33N 67°17' E 014°22'0 0.0
2014-Oct-18 23:33N 67°17' E 014°22'0 0.0
2014-Oct-18 22:33N 67°17' E 014°22'0 0.0
2014-Oct-18 21:33N 67°17' E 014°22'0 0.0
2014-Oct-18 20:33N 67°17' E 014°22'0 0.0
2014-Oct-18 19:33N 67°17' E 014°22'0 0.0
2014-Oct-18 18:33N 67°17' E 014°22'0 0.0
2014-Oct-18 17:33N 67°17' E 014°22'0 0.0
2014-Oct-18 16:33N 67°17' E 014°22'0 0.0
2014-Oct-18 15:33N 67°17' E 014°22'0 0.0
2014-Oct-18 14:33N 67°17' E 014°22'0 0.0
2014-Oct-18 13:33N 67°17' E 014°22'0 0.0
2014-Oct-18 12:33N 67°17' E 014°22'0 0.0
2014-Oct-18 11:33N 67°17' E 014°22'0 0.0
2014-Oct-18 10:33N 67°17' E 014°22'0 0.0
2014-Oct-18 09:33N 67°17' E 014°22'1 0.7
2014-Oct-18 08:33N 67°17' E 014°24'2417.3
2014-Oct-18 07:10N 67°40' E 014°46'9 0.6
2014-Oct-17 16:33N 67°31' E 014°39'1515.3
2014-Oct-17 15:33N 67°17' E 014°22'6 2.8
2014-Oct-17 13:33N 67°22' E 014°29'6 5.6
2014-Oct-17 12:33N 67°17' E 014°22'0 0.0
2014-Oct-17 11:33N 67°17' E 014°22'0 0.0
2014-Oct-17 10:33N 67°17' E 014°22'0 0.0
2014-Oct-17 09:33N 67°17' E 014°22'0 0.0
2014-Oct-17 08:33N 67°17' E 014°22'9 8.6
2014-Oct-17 07:32N 67°25' E 014°32'1 0.1
2014-Oct-16 15:33N 67°24' E 014°30'7 7.2
2014-Oct-16 14:33N 67°17' E 014°22'0 0.0
2014-Oct-16 13:33N 67°17' E 014°22'0 0.0
2014-Oct-16 12:33N 67°17' E 014°22'0 0.0
2014-Oct-16 11:33N 67°17' E 014°22'0 0.0
2014-Oct-16 10:33N 67°17' E 014°22'5 5.2
2014-Oct-16 09:33N 67°14' E 014°12'9 0.5
2014-Oct-15 14:30N 67°06' E 013°58'1415.1
2014-Oct-15 13:33N 67°17' E 014°23'0 0.1
2014-Oct-15 12:33N 67°17' E 014°22'0 0.0
2014-Oct-15 11:33N 67°17' E 014°22'0 0.0
2014-Oct-15 10:33N 67°17' E 014°22'0 0.0
2014-Oct-15 09:33N 67°17' E 014°22'0 0.0
2014-Oct-15 08:33N 67°17' E 014°22'8 0.5
2014-Oct-14 15:33N 67°24' E 014°31'8 7.8
2014-Oct-14 14:33N 67°17' E 014°22'  
Track history (hours):
 
Tides and Currents Weather Stations Pressure Air Temp Water Temp Dewpoint Dewpoint Depression Visibility Wind Speed Wind Dir Waves Ship Positions

Salten

Last reported at 2014-Oct-24 14:28 UTC. Time now 2014-Oct-25 05:34 UTC.
Position N 67°08' E 014°01'.

Length 41 m; draft 1.5 m.

Type: High speed craft. MMSI: 259387000.

Date/timePositionNaut miles runAvg speedWind from/ knotsBaromVisibWave heightAir tempDewpointWater temp
2014-Oct-24 14:28N 67°08' E 014°01'1313.7
2014-Oct-24 13:33N 67°17' E 014°22'0 0.0
2014-Oct-24 12:33N 67°17' E 014°22'0 0.0
2014-Oct-24 11:33N 67°17' E 014°22'0 0.0
2014-Oct-24 10:33N 67°17' E 014°22'12 0.6
2014-Oct-23 14:32N 67°07' E 014°03'1313.1
2014-Oct-23 13:33N 67°17' E 014°24'1 0.6
2014-Oct-23 12:33N 67°17' E 014°22'0 0.0
2014-Oct-23 11:33N 67°17' E 014°22'0 0.0
2014-Oct-23 10:33N 67°17' E 014°22'6 6.4
2014-Oct-23 09:33N 67°13' E 014°10'8 0.4
2014-Oct-22 14:30N 67°06' E 013°58'1415.1
2014-Oct-22 13:33N 67°17' E 014°22'0 0.0
2014-Oct-22 12:33N 67°17' E 014°22'0 0.0
2014-Oct-22 11:33N 67°17' E 014°22'0 0.0
2014-Oct-22 10:33N 67°17' E 014°22'9 8.6
2014-Oct-22 09:32N 67°11' E 014°06'15 0.8
2014-Oct-21 15:06N 67°00' E 013°39'1220.1
2014-Oct-21 14:31N 67°07' E 014°03'1212.7
2014-Oct-21 13:33N 67°17' E 014°22'0 0.0
2014-Oct-21 12:33N 67°17' E 014°22'0 0.0
2014-Oct-21 11:33N 67°17' E 014°22'0 0.0
2014-Oct-21 10:33N 67°17' E 014°22'0 0.0
2014-Oct-21 09:33N 67°17' E 014°22'0 0.0
2014-Oct-21 08:33N 67°17' E 014°22'1211.9
2014-Oct-21 07:32N 67°28' E 014°37'5 0.3
2014-Oct-20 15:33N 67°23' E 014°31'7 7.0
2014-Oct-20 14:33N 67°17' E 014°22'0 0.0
2014-Oct-20 13:33N 67°17' E 014°22'0 0.0
2014-Oct-20 12:33N 67°17' E 014°22'0 0.0
2014-Oct-20 11:33N 67°17' E 014°22'0 0.0
2014-Oct-20 10:33N 67°17' E 014°22'5 5.4
2014-Oct-20 09:33N 67°14' E 014°12'50 2.6
2014-Oct-19 14:28N 66°33' E 012°58'2811.7
2014-Oct-19 12:05N 66°58' E 013°31'1527.2
2014-Oct-19 11:32N 67°08' E 013°58'1313.2
2014-Oct-19 10:33N 67°17' E 014°22'0 0.0
2014-Oct-19 09:33N 67°17' E 014°22'0 0.0
2014-Oct-19 08:33N 67°17' E 014°22'0 0.0
2014-Oct-19 07:33N 67°17' E 014°22'0 0.0
2014-Oct-19 06:33N 67°17' E 014°22'0 0.0
2014-Oct-19 05:33N 67°17' E 014°22'0 0.0
2014-Oct-19 04:33N 67°17' E 014°22'0 0.0
2014-Oct-19 03:33N 67°17' E 014°22'0 0.0
2014-Oct-19 02:33N 67°17' E 014°22'0 0.0
2014-Oct-19 01:33N 67°17' E 014°22'0 0.0
2014-Oct-19 00:33N 67°17' E 014°22'0 0.0
2014-Oct-18 23:33N 67°17' E 014°22'0 0.0
2014-Oct-18 22:33N 67°17' E 014°22'0 0.0
2014-Oct-18 21:33N 67°17' E 014°22'0 0.0
2014-Oct-18 20:33N 67°17' E 014°22'0 0.0
2014-Oct-18 19:33N 67°17' E 014°22'0 0.0
2014-Oct-18 18:33N 67°17' E 014°22'0 0.0
2014-Oct-18 17:33N 67°17' E 014°22'0 0.0
2014-Oct-18 16:33N 67°17' E 014°22'0 0.0
2014-Oct-18 15:33N 67°17' E 014°22'0 0.0
2014-Oct-18 14:33N 67°17' E 014°22'0 0.0
2014-Oct-18 13:33N 67°17' E 014°22'0 0.0
2014-Oct-18 12:33N 67°17' E 014°22'0 0.0
2014-Oct-18 11:33N 67°17' E 014°22'0 0.0
2014-Oct-18 10:33N 67°17' E 014°22'0 0.0
2014-Oct-18 09:33N 67°17' E 014°22'1 0.7
2014-Oct-18 08:33N 67°17' E 014°24'2417.3
2014-Oct-18 07:10N 67°40' E 014°46'9 0.6
2014-Oct-17 16:33N 67°31' E 014°39'1515.3
2014-Oct-17 15:33N 67°17' E 014°22'6 2.8
2014-Oct-17 13:33N 67°22' E 014°29'6 5.6
2014-Oct-17 12:33N 67°17' E 014°22'0 0.0
2014-Oct-17 11:33N 67°17' E 014°22'0 0.0
2014-Oct-17 10:33N 67°17' E 014°22'0 0.0
2014-Oct-17 09:33N 67°17' E 014°22'0 0.0
2014-Oct-17 08:33N 67°17' E 014°22'9 8.6
2014-Oct-17 07:32N 67°25' E 014°32'1 0.1
2014-Oct-16 15:33N 67°24' E 014°30'7 7.2
2014-Oct-16 14:33N 67°17' E 014°22'0 0.0
2014-Oct-16 13:33N 67°17' E 014°22'0 0.0
2014-Oct-16 12:33N 67°17' E 014°22'0 0.0
2014-Oct-16 11:33N 67°17' E 014°22'0 0.0
2014-Oct-16 10:33N 67°17' E 014°22'5 5.2
2014-Oct-16 09:33N 67°14' E 014°12'9 0.5
2014-Oct-15 14:30N 67°06' E 013°58'1415.1
2014-Oct-15 13:33N 67°17' E 014°23'0 0.1
2014-Oct-15 12:33N 67°17' E 014°22'0 0.0
2014-Oct-15 11:33N 67°17' E 014°22'0 0.0
2014-Oct-15 10:33N 67°17' E 014°22'0 0.0
2014-Oct-15 09:33N 67°17' E 014°22'0 0.0
2014-Oct-15 08:33N 67°17' E 014°22'8 0.5
2014-Oct-14 15:33N 67°24' E 014°31'8 7.8
2014-Oct-14 14:33N 67°17' E 014°22'  

Dump ship's entire track history